Time;durP1;ratioP1;P1;durP2;ratioP2;P2;SDS_P1;SDS_P2;PMS_P1;PMS_P2;Temp;Humidity;BMP_temperature;BMP_pressure;BME280_temperature;BME280_humidity;BME280_pressure;Samples;Min_cycle;Max_cycle;Signal;HPM_P1;HPM_P2
2021/12/29 00:02:05;;;;;;;10.40;5.47;;;9.40;99.90;;;;;;5073687;28;20033;-74
2021/12/29 00:04:31;;;;;;;13.45;6.07;;;9.40;99.90;;;;;;5073036;28;20036;-74
2021/12/29 00:06:58;;;;;;;9.60;5.40;;;9.40;99.90;;;;;;5077864;28;20545;-74
2021/12/29 00:09:24;;;;;;;9.90;5.38;;;9.40;99.90;;;;;;5074918;28;20035;-74
2021/12/29 00:11:50;;;;;;;10.57;4.88;;;9.40;99.90;;;;;;5093788;28;20359;-74
2021/12/29 00:14:16;;;;;;;10.43;5.03;;;9.30;99.90;;;;;;5093585;28;20109;-74
2021/12/29 00:16:42;;;;;;;12.02;5.53;;;9.30;99.90;;;;;;5093612;28;20024;-74
2021/12/29 00:19:08;;;;;;;8.80;4.70;;;9.30;99.90;;;;;;5093353;28;20531;-74
2021/12/29 00:21:34;;;;;;;9.93;5.10;;;9.30;99.90;;;;;;5093499;28;20032;-74
2021/12/29 00:24:02;;;;;;;11.25;5.45;;;9.40;99.90;;;;;;5093301;28;20027;-74
2021/12/29 00:26:29;;;;;;;15.20;5.65;;;9.40;99.90;;;;;;5093293;28;20048;-75
2021/12/29 00:28:58;;;;;;;12.18;5.97;;;9.30;99.90;;;;;;5093332;28;20383;-74
2021/12/29 00:31:25;;;;;;;13.80;6.82;;;9.30;99.90;;;;;;5093275;28;20039;-74
2021/12/29 00:33:51;;;;;;;18.13;7.43;;;9.30;99.90;;;;;;5093286;28;20127;-74
2021/12/29 00:36:17;;;;;;;18.98;8.32;;;9.30;99.90;;;;;;5074845;28;20518;-74
2021/12/29 00:38:43;;;;;;;19.80;8.20;;;9.30;99.90;;;;;;5093082;28;20035;-74
2021/12/29 00:41:09;;;;;;;21.02;8.98;;;9.40;99.90;;;;;;5093010;28;20031;-74
2021/12/29 00:43:35;;;;;;;20.67;9.55;;;9.40;99.90;;;;;;5093102;28;20024;-74
2021/12/29 00:46:00;;;;;;;20.00;10.48;;;9.40;99.90;;;;;;5092982;28;20020;-74
2021/12/29 00:48:34;;;;;;;25.15;11.30;;;9.40;99.90;;;;;;5092971;28;20094;-74
2021/12/29 00:51:00;;;;;;;34.50;11.73;;;9.40;99.90;;;;;;5092732;28;20024;-74
2021/12/29 00:53:26;;;;;;;29.33;12.30;;;9.50;99.90;;;;;;5093106;28;20040;-74
2021/12/29 00:55:51;;;;;;;32.97;12.05;;;9.50;99.90;;;;;;5091890;28;20549;-74
2021/12/29 00:58:17;;;;;;;24.92;11.15;;;9.50;99.90;;;;;;5074591;28;20024;-74
2021/12/29 01:00:43;;;;;;;22.83;11.27;;;9.50;99.90;;;;;;5092860;28;20024;-74
2021/12/29 01:03:10;;;;;;;29.40;12.35;;;9.50;99.90;;;;;;5092677;28;20068;-75
2021/12/29 01:05:36;;;;;;;24.95;11.13;;;9.50;99.90;;;;;;5074514;28;20533;-74
2021/12/29 01:08:02;;;;;;;26.42;11.98;;;9.60;99.90;;;;;;5092612;28;20020;-74
2021/12/29 01:10:28;;;;;;;29.67;12.48;;;9.50;99.90;;;;;;5092583;28;20032;-74
2021/12/29 01:12:58;;;;;;;24.67;12.07;;;9.50;99.90;;;;;;5092754;28;20039;-74
2021/12/29 01:15:32;;;;;;;26.25;12.30;;;9.50;99.90;;;;;;5092506;28;20027;-74
2021/12/29 01:18:01;;;;;;;27.42;11.70;;;9.50;99.90;;;;;;5092593;28;20469;-74
2021/12/29 01:20:28;;;;;;;34.55;12.82;;;9.60;99.90;;;;;;5092247;28;20070;-74
2021/12/29 01:22:54;;;;;;;42.40;16.20;;;9.60;99.90;;;;;;5092442;28;20782;-74
2021/12/29 01:25:21;;;;;;;29.83;12.68;;;9.50;99.90;;;;;;5092127;28;20111;-74
2021/12/29 01:27:47;;;;;;;38.22;14.70;;;9.50;99.90;;;;;;5092264;28;20035;-75
2021/12/29 01:30:13;;;;;;;35.53;14.57;;;9.50;99.90;;;;;;5092465;28;20035;-74
2021/12/29 01:32:40;;;;;;;31.73;14.05;;;9.50;99.90;;;;;;5092354;28;20039;-74
2021/12/29 01:35:08;;;;;;;36.97;13.82;;;9.50;99.90;;;;;;5092114;28;20028;-74
2021/12/29 01:37:35;;;;;;;32.80;13.63;;;9.50;99.90;;;;;;5092016;28;20090;-74
2021/12/29 01:40:01;;;;;;;31.02;13.68;;;9.50;99.90;;;;;;5092056;28;20158;-74
2021/12/29 01:42:27;;;;;;;28.95;12.65;;;9.50;99.90;;;;;;5073955;28;20020;-75
2021/12/29 01:44:52;;;;;;;37.83;14.85;;;9.50;99.90;;;;;;5092090;28;20049;-74
2021/12/29 01:47:26;;;;;;;41.53;14.45;;;9.50;99.90;;;;;;5092054;28;20035;-74
2021/12/29 01:49:52;;;;;;;40.03;14.82;;;9.40;99.90;;;;;;5083473;28;20028;-75
2021/12/29 01:52:22;;;;;;;33.85;13.98;;;9.40;99.90;;;;;;5070612;28;20035;-75
2021/12/29 01:54:48;;;;;;;38.85;15.07;;;9.50;99.90;;;;;;5071211;28;20116;-74
2021/12/29 01:57:14;;;;;;;29.92;13.05;;;9.40;99.90;;;;;;5070526;28;20123;-74
2021/12/29 01:59:41;;;;;;;31.20;12.80;;;9.40;99.90;;;;;;5071722;28;20040;-74
2021/12/29 02:02:08;;;;;;;34.05;13.07;;;9.40;99.90;;;;;;5071851;28;20356;-74
2021/12/29 02:04:34;;;;;;;32.17;13.57;;;9.40;99.90;;;;;;5071641;28;20056;-74
2021/12/29 02:06:59;;;;;;;34.92;13.05;;;9.40;99.90;;;;;;5072035;28;20055;-74
2021/12/29 02:09:25;;;;;;;34.90;12.65;;;9.40;99.90;;;;;;5091762;28;20662;-74
2021/12/29 02:11:52;;;;;;;38.10;12.80;;;9.40;99.90;;;;;;5091977;28;20028;-74
2021/12/29 02:14:18;;;;;;;28.65;12.55;;;9.30;99.90;;;;;;5091797;28;20036;-74
2021/12/29 02:16:45;;;;;;;33.50;12.30;;;9.40;99.90;;;;;;5091847;28;20363;-74
2021/12/29 02:19:12;;;;;;;30.40;11.48;;;9.40;99.90;;;;;;5091527;28;20032;-74
2021/12/29 02:21:42;;;;;;;31.30;13.10;;;9.30;99.90;;;;;;5091758;28;20052;-74
2021/12/29 02:26:38;;;;;;;44.20;13.20;;;9.40;99.90;;;;;;5091553;28;20780;-74
2021/12/29 02:29:08;;;;;;;40.03;12.55;;;9.40;99.90;;;;;;5091721;28;20036;-74
2021/12/29 02:31:36;;;;;;;25.08;10.90;;;9.40;99.90;;;;;;5091820;28;20434;-74
2021/12/29 02:34:03;;;;;;;29.60;10.90;;;9.40;99.90;;;;;;5073427;28;20032;-74
2021/12/29 02:36:29;;;;;;;25.88;10.60;;;9.40;99.90;;;;;;5091665;28;20054;-74
2021/12/29 02:38:56;;;;;;;27.73;13.75;;;9.30;99.90;;;;;;5091594;28;20055;-74
2021/12/29 02:41:24;;;;;;;29.05;12.57;;;9.30;99.90;;;;;;5091654;28;20019;-74
2021/12/29 02:43:58;;;;;;;28.45;12.25;;;9.50;99.90;;;;;;5091558;28;20024;-74
2021/12/29 02:46:25;;;;;;;30.90;11.90;;;9.40;99.90;;;;;;5091687;28;20047;-74
2021/12/29 02:48:58;;;;;;;33.05;12.40;;;9.40;99.90;;;;;;5091499;28;20040;-74
2021/12/29 02:51:24;;;;;;;28.30;13.73;;;9.40;99.90;;;;;;5091490;28;20032;-74
2021/12/29 02:53:50;;;;;;;34.33;13.48;;;9.40;99.90;;;;;;5073190;28;20034;-74
2021/12/29 02:56:16;;;;;;;39.13;14.55;;;9.30;99.90;;;;;;5091362;28;20246;-74
2021/12/29 02:58:41;;;;;;;38.85;14.10;;;9.30;99.90;;;;;;5091425;28;20024;-74
2021/12/29 03:01:11;;;;;;;38.97;15.10;;;9.40;99.90;;;;;;5091413;28;20099;-74
2021/12/29 03:03:37;;;;;;;39.97;14.15;;;9.40;99.90;;;;;;5091368;28;20021;-74
2021/12/29 03:06:04;;;;;;;44.47;15.73;;;9.40;99.90;;;;;;5091288;28;20617;-74
2021/12/29 03:08:30;;;;;;;36.70;14.38;;;9.40;99.90;;;;;;5091326;28;20024;-74
2021/12/29 03:10:55;;;;;;;38.83;15.30;;;9.30;99.90;;;;;;5091272;28;20436;-74
2021/12/29 03:13:27;;;;;;;43.85;14.32;;;9.40;99.90;;;;;;5091392;28;20031;-74
2021/12/29 03:15:54;;;;;;;42.03;16.33;;;9.30;99.90;;;;;;5091260;28;20085;-74
2021/12/29 03:18:19;;;;;;;53.25;15.90;;;9.30;99.90;;;;;;5091537;28;20024;-74
2021/12/29 03:20:46;;;;;;;41.13;14.00;;;9.30;99.90;;;;;;5084999;28;20363;-74
2021/12/29 03:23:12;;;;;;;41.08;13.75;;;9.20;99.90;;;;;;5074483;28;20486;-74
2021/12/29 03:25:38;;;;;;;46.70;14.20;;;9.20;99.90;;;;;;5074364;28;20052;-74
2021/12/29 03:28:04;;;;;;;51.42;13.82;;;9.20;99.90;;;;;;5074503;28;20379;-74
2021/12/29 03:30:36;;;;;;;48.05;12.05;;;9.20;99.90;;;;;;5074731;28;20090;-75
2021/12/29 03:33:03;;;;;;;39.95;11.63;;;9.20;99.90;;;;;;5074420;28;20021;-74
2021/12/29 03:35:34;;;;;;;38.42;11.10;;;9.20;99.90;;;;;;5074349;28;20050;-74
2021/12/29 03:38:02;;;;;;;60.33;13.38;;;9.30;99.90;;;;;;5074385;28;20020;-74
2021/12/29 03:40:28;;;;;;;35.95;11.00;;;9.30;99.90;;;;;;5074172;28;20107;-74
2021/12/29 03:42:55;;;;;;;38.92;9.82;;;9.20;99.90;;;;;;5074225;28;20084;-74
2021/12/29 03:45:21;;;;;;;40.53;11.45;;;9.30;99.90;;;;;;5074178;28;20024;-74
2021/12/29 03:47:46;;;;;;;41.55;8.70;;;9.20;99.90;;;;;;5074098;28;20033;-74
2021/12/29 03:50:12;;;;;;;36.53;8.48;;;9.20;99.90;;;;;;5084990;28;20086;-74
2021/12/29 03:52:38;;;;;;;51.15;9.15;;;9.30;99.90;;;;;;5094146;28;20031;-74
2021/12/29 03:55:04;;;;;;;39.92;9.35;;;9.30;99.90;;;;;;5094141;28;20098;-74
2021/12/29 03:57:30;;;;;;;43.15;8.95;;;9.30;99.90;;;;;;5094243;28;20039;-74
2021/12/29 03:59:55;;;;;;;43.05;8.27;;;9.30;99.90;;;;;;5093978;28;20028;-74
2021/12/29 04:02:21;;;;;;;38.15;7.78;;;9.30;99.90;;;;;;5094088;28;20819;-74
2021/12/29 04:04:46;;;;;;;28.98;7.00;;;9.20;99.90;;;;;;5093863;28;20063;-74
2021/12/29 04:07:12;;;;;;;44.38;7.25;;;9.20;99.90;;;;;;5093960;28;20115;-74
2021/12/29 04:09:38;;;;;;;34.08;8.23;;;9.20;99.90;;;;;;5093745;28;20384;-74
2021/12/29 04:12:04;;;;;;;32.45;7.10;;;9.20;99.90;;;;;;5093981;28;20077;-74
2021/12/29 04:14:30;;;;;;;37.60;7.82;;;9.20;99.90;;;;;;5075462;28;20028;-74
2021/12/29 04:17:07;;;;;;;31.80;6.80;;;9.20;99.90;;;;;;5093920;28;20088;-74
2021/12/29 04:20:54;;;;;;;27.77;7.18;;;9.20;99.90;;;;;;5093538;28;20478;-74
2021/12/29 04:22:29;;;;;;;26.27;6.45;;;9.30;99.90;;;;;;5073467;28;20387;-74
2021/12/29 04:24:55;;;;;;;35.72;6.88;;;9.20;99.90;;;;;;5073238;28;20028;-74
2021/12/29 04:27:24;;;;;;;27.92;7.05;;;9.20;99.90;;;;;;5073112;28;20053;-74
2021/12/29 04:29:49;;;;;;;19.52;7.32;;;9.30;99.90;;;;;;5073377;28;20025;-74
2021/12/29 04:32:15;;;;;;;28.67;6.38;;;9.20;99.90;;;;;;5073377;28;20089;-74
2021/12/29 04:34:41;;;;;;;27.77;6.88;;;9.30;99.90;;;;;;5073072;28;20031;-74
2021/12/29 04:37:06;;;;;;;23.20;6.57;;;9.20;99.90;;;;;;5073251;28;20028;-74
2021/12/29 04:39:32;;;;;;;24.38;6.53;;;9.20;99.90;;;;;;5072882;28;20112;-74
2021/12/29 04:41:58;;;;;;;27.67;7.05;;;9.20;99.90;;;;;;5073106;28;20024;-74
2021/12/29 04:44:24;;;;;;;26.58;7.35;;;9.20;99.90;;;;;;5073017;28;20059;-74
2021/12/29 04:46:51;;;;;;;25.55;6.97;;;9.20;99.90;;;;;;5073011;28;20070;-74
2021/12/29 04:49:22;;;;;;;22.77;7.35;;;9.20;99.90;;;;;;5076016;28;20470;-74
2021/12/29 04:51:56;;;;;;;25.65;7.13;;;9.20;99.90;;;;;;5093168;28;20020;-74
2021/12/29 04:54:21;;;;;;;31.63;8.32;;;9.20;99.90;;;;;;5092982;28;20052;-74
2021/12/29 04:56:47;;;;;;;22.67;8.50;;;9.20;99.90;;;;;;5093116;28;20055;-74
2021/12/29 04:59:15;;;;;;;24.00;9.02;;;9.10;99.90;;;;;;5092710;28;20463;-74
2021/12/29 05:01:42;;;;;;;31.45;8.75;;;9.10;99.90;;;;;;5092907;28;20031;-74
2021/12/29 05:04:08;;;;;;;23.92;9.15;;;9.10;99.90;;;;;;5092749;28;20076;-74
2021/12/29 05:09:18;;;;;;;29.27;10.18;;;9.20;99.90;;;;;;5092560;28;20092;-74
2021/12/29 05:11:43;;;;;;;35.47;11.20;;;9.20;99.90;;;;;;5074623;28;20126;-74
2021/12/29 05:14:09;;;;;;;31.25;10.18;;;9.10;99.90;;;;;;5092602;28;20032;-75
2021/12/29 05:16:35;;;;;;;31.35;10.68;;;9.20;99.90;;;;;;5092734;28;20105;-74
2021/12/29 05:19:00;;;;;;;25.60;10.77;;;9.10;99.90;;;;;;5092520;28;20411;-74
2021/12/29 05:21:26;;;;;;;27.42;9.95;;;9.20;99.90;;;;;;5077002;28;20036;-74
2021/12/29 05:23:53;;;;;;;26.10;8.82;;;9.10;99.90;;;;;;5072313;28;20041;-74
2021/12/29 05:26:18;;;;;;;18.38;9.15;;;9.20;99.90;;;;;;5072026;28;20048;-74
2021/12/29 05:28:45;;;;;;;26.17;10.43;;;9.10;99.90;;;;;;5071889;28;20032;-74
2021/12/29 05:31:11;;;;;;;25.65;10.25;;;9.20;99.90;;;;;;5072600;28;20307;-74
2021/12/29 05:33:36;;;;;;;22.50;9.07;;;9.20;99.90;;;;;;5072183;28;20124;-74
2021/12/29 05:36:03;;;;;;;20.15;8.77;;;9.10;99.90;;;;;;5072044;28;20099;-74
2021/12/29 05:38:29;;;;;;;23.10;8.90;;;9.10;99.90;;;;;;5072011;28;20356;-74
2021/12/29 05:40:54;;;;;;;26.02;10.07;;;9.20;99.90;;;;;;5071806;28;20027;-74
2021/12/29 05:43:20;;;;;;;22.60;9.15;;;9.20;99.90;;;;;;5071767;28;20734;-74
2021/12/29 05:45:49;;;;;;;20.23;8.32;;;9.20;99.90;;;;;;5053833;28;20031;-74
2021/12/29 05:48:15;;;;;;;19.10;8.27;;;9.20;99.90;;;;;;5071841;28;20090;-74
2021/12/29 05:50:40;;;;;;;21.73;9.07;;;9.20;99.90;;;;;;5086697;28;20382;-74
2021/12/29 05:53:06;;;;;;;16.15;8.10;;;9.20;99.90;;;;;;5091907;28;20039;-74
2021/12/29 05:55:32;;;;;;;18.15;8.90;;;9.20;99.90;;;;;;5091597;28;20032;-74
2021/12/29 05:57:58;;;;;;;21.25;8.57;;;9.20;99.90;;;;;;5091924;28;20024;-74
2021/12/29 06:00:25;;;;;;;26.83;9.57;;;9.20;99.90;;;;;;5092075;28;20024;-74
2021/12/29 06:02:51;;;;;;;25.20;8.55;;;9.20;99.90;;;;;;5091914;28;20098;-74
2021/12/29 06:05:17;;;;;;;25.17;8.75;;;9.20;99.90;;;;;;5091833;28;20056;-74
2021/12/29 06:07:43;;;;;;;17.30;7.72;;;9.20;99.90;;;;;;5091928;28;20048;-74
2021/12/29 06:10:09;;;;;;;16.80;7.47;;;9.20;99.90;;;;;;5091815;28;20016;-74
2021/12/29 06:12:37;;;;;;;15.32;8.43;;;9.10;99.90;;;;;;5091769;28;20031;-74
2021/12/29 06:15:04;;;;;;;11.57;6.28;;;9.20;99.90;;;;;;5091895;28;20020;-74
2021/12/29 06:17:30;;;;;;;13.65;7.68;;;9.20;99.90;;;;;;5091760;28;20032;-74
2021/12/29 06:19:56;;;;;;;11.57;6.15;;;9.20;99.90;;;;;;5070510;28;20238;-74
2021/12/29 06:22:23;;;;;;;12.70;5.60;;;9.20;99.90;;;;;;5071657;28;20024;-74
2021/12/29 06:24:52;;;;;;;9.38;5.88;;;9.20;99.90;;;;;;5071486;28;20020;-74
2021/12/29 06:27:20;;;;;;;11.25;5.63;;;9.20;99.90;;;;;;5071266;28;20065;-74
2021/12/29 06:29:45;;;;;;;13.45;5.38;;;9.20;99.90;;;;;;5071581;28;20082;-74
2021/12/29 06:32:11;;;;;;;17.52;6.60;;;9.20;99.90;;;;;;5071619;28;20351;-74
2021/12/29 06:34:37;;;;;;;18.50;6.78;;;9.20;99.90;;;;;;5071421;28;20051;-74
2021/12/29 06:37:08;;;;;;;28.67;8.68;;;9.20;99.90;;;;;;5071515;28;20029;-74
2021/12/29 06:39:37;;;;;;;19.77;8.03;;;9.10;99.90;;;;;;5053218;28;20032;-74
2021/12/29 06:42:04;;;;;;;21.27;9.02;;;9.20;99.90;;;;;;5071409;28;20017;-74
2021/12/29 06:44:29;;;;;;;27.23;11.00;;;9.10;99.90;;;;;;5071348;28;20036;-74
2021/12/29 06:46:55;;;;;;;33.22;10.15;;;9.20;99.90;;;;;;5071419;28;20024;-74
2021/12/29 06:49:22;;;;;;;27.02;10.88;;;9.30;99.90;;;;;;5075025;28;20378;-74
2021/12/29 06:51:49;;;;;;;33.97;11.15;;;9.20;99.90;;;;;;5091534;28;20024;-74
2021/12/29 06:54:14;;;;;;;34.30;12.75;;;9.20;99.90;;;;;;5093173;28;20024;-74
2021/12/29 06:56:40;;;;;;;34.45;11.43;;;9.10;99.90;;;;;;5095443;28;20028;-74
2021/12/29 06:59:06;;;;;;;30.35;12.10;;;9.10;99.90;;;;;;5095196;28;20526;-74
2021/12/29 07:01:32;;;;;;;47.95;12.35;;;9.10;99.90;;;;;;5095138;28;20123;-74
2021/12/29 07:03:59;;;;;;;34.50;13.43;;;9.10;99.90;;;;;;5095193;28;20024;-74
2021/12/29 07:06:25;;;;;;;38.67;11.38;;;9.20;99.90;;;;;;5095178;28;20028;-74
2021/12/29 07:08:51;;;;;;;33.47;11.32;;;9.10;99.90;;;;;;5076776;28;20031;-74
2021/12/29 07:11:16;;;;;;;34.65;11.38;;;9.10;99.90;;;;;;5094907;28;20036;-74
2021/12/29 07:13:44;;;;;;;36.63;10.65;;;9.10;99.90;;;;;;5095033;28;20030;-74
2021/12/29 07:16:10;;;;;;;44.10;10.60;;;9.00;99.90;;;;;;5095053;28;20024;-74
2021/12/29 07:18:36;;;;;;;41.05;11.13;;;9.00;99.90;;;;;;5094884;28;20115;-74
2021/12/29 07:21:01;;;;;;;35.72;10.75;;;9.00;99.90;;;;;;5078220;28;20099;-74
2021/12/29 07:23:27;;;;;;;41.45;10.82;;;9.00;99.90;;;;;;5074671;28;20445;-74
2021/12/29 07:25:52;;;;;;;31.17;10.88;;;9.00;99.90;;;;;;5074477;28;20017;-74
2021/12/29 07:28:18;;;;;;;30.05;11.20;;;9.00;99.90;;;;;;5074345;28;20105;-74
2021/12/29 07:30:44;;;;;;;47.72;10.30;;;9.00;99.90;;;;;;5074671;28;20372;-74
2021/12/29 07:33:09;;;;;;;57.17;10.88;;;9.00;99.90;;;;;;5074425;28;20033;-74
2021/12/29 07:35:35;;;;;;;36.00;10.32;;;9.00;99.90;;;;;;5074354;28;20104;-74
2021/12/29 07:38:01;;;;;;;30.50;9.77;;;9.00;99.90;;;;;;5074317;28;20041;-74
2021/12/29 07:40:26;;;;;;;38.17;11.15;;;9.00;99.90;;;;;;5074132;28;20399;-74
2021/12/29 07:42:52;;;;;;;33.40;11.52;;;9.00;99.90;;;;;;5074161;28;20033;-74
2021/12/29 07:45:19;;;;;;;42.67;12.25;;;9.00;99.90;;;;;;5074200;28;20394;-74
2021/12/29 07:47:47;;;;;;;41.88;11.38;;;9.00;99.90;;;;;;5074009;28;20479;-74
2021/12/29 07:50:15;;;;;;;43.65;12.45;;;8.90;99.90;;;;;;5085085;28;20043;-74
2021/12/29 07:52:41;;;;;;;40.47;13.32;;;8.90;99.90;;;;;;5094139;28;20478;-74
2021/12/29 07:55:07;;;;;;;33.95;12.35;;;8.90;99.90;;;;;;5093951;28;20051;-74
2021/12/29 07:57:33;;;;;;;50.85;12.38;;;8.90;99.90;;;;;;5094253;28;20355;-74
2021/12/29 07:59:59;;;;;;;38.58;12.75;;;8.90;99.90;;;;;;5094001;28;20024;-74
2021/12/29 08:02:27;;;;;;;35.03;12.18;;;8.90;99.90;;;;;;5093977;28;20056;-74
2021/12/29 08:04:58;;;;;;;44.35;13.85;;;8.90;99.90;;;;;;5103728;28;20098;-73
2021/12/29 08:07:25;;;;;;;37.85;13.88;;;8.90;99.90;;;;;;5104454;28;20434;-73
2021/12/29 08:09:52;;;;;;;35.78;12.73;;;8.90;99.90;;;;;;5105616;28;20034;-74
2021/12/29 08:12:17;;;;;;;41.80;13.98;;;8.90;99.90;;;;;;5098324;28;20556;-74
2021/12/29 08:14:45;;;;;;;35.92;13.95;;;8.90;99.90;;;;;;5099587;28;20103;-74
2021/12/29 08:17:11;;;;;;;50.53;14.88;;;8.90;99.90;;;;;;5105408;28;20028;-74
2021/12/29 08:19:37;;;;;;;37.75;14.68;;;8.90;99.90;;;;;;5106094;28;20015;-74
2021/12/29 08:22:03;;;;;;;45.10;16.27;;;8.90;99.90;;;;;;5099682;28;20016;-74
2021/12/29 08:24:29;;;;;;;39.33;14.48;;;8.90;99.90;;;;;;5099709;28;20024;-74
2021/12/29 08:26:54;;;;;;;41.83;14.60;;;8.90;99.90;;;;;;5099550;28;20040;-74
2021/12/29 08:29:21;;;;;;;44.42;13.98;;;8.90;99.90;;;;;;5099484;28;20028;-74
2021/12/29 08:31:47;;;;;;;43.65;14.70;;;8.90;99.90;;;;;;5099782;28;20034;-74
2021/12/29 08:34:12;;;;;;;48.83;13.85;;;8.90;99.90;;;;;;5099800;28;20370;-74
2021/12/29 08:36:38;;;;;;;39.20;13.73;;;8.90;99.90;;;;;;5099367;28;20035;-74
2021/12/29 08:39:04;;;;;;;41.50;14.07;;;8.80;99.90;;;;;;5099057;28;20032;-74
2021/12/29 08:41:30;;;;;;;42.28;15.00;;;8.90;99.90;;;;;;5099898;28;20068;-74
2021/12/29 08:43:55;;;;;;;37.38;14.45;;;8.80;99.90;;;;;;5080809;28;20012;-74
2021/12/29 08:46:22;;;;;;;37.63;14.32;;;8.90;99.90;;;;;;5102029;28;20020;-74
2021/12/29 08:48:48;;;;;;;44.55;15.45;;;8.90;99.90;;;;;;5100468;28;20019;-74
2021/12/29 08:51:15;;;;;;;39.58;16.27;;;8.90;99.90;;;;;;5099917;28;20102;-74
2021/12/29 08:53:41;;;;;;;41.45;15.73;;;8.90;99.90;;;;;;5097740;28;20057;-74
2021/12/29 08:56:07;;;;;;;39.83;16.65;;;8.90;99.90;;;;;;5100413;28;20030;-74
2021/12/29 08:58:33;;;;;;;45.40;18.33;;;8.90;99.90;;;;;;5102963;28;20024;-74
2021/12/29 09:01:00;;;;;;;47.75;17.33;;;8.90;99.90;;;;;;5103511;28;20387;-74
2021/12/29 09:03:26;;;;;;;38.58;16.80;;;8.90;99.90;;;;;;5101946;28;20031;-74
2021/12/29 09:05:52;;;;;;;36.15;16.02;;;8.90;99.90;;;;;;5102155;28;20100;-74
2021/12/29 09:08:18;;;;;;;39.22;14.68;;;8.90;99.90;;;;;;5101965;28;20725;-74
2021/12/29 09:10:44;;;;;;;35.28;15.38;;;8.90;99.90;;;;;;5103601;28;20080;-74
2021/12/29 09:13:11;;;;;;;41.88;15.40;;;8.90;99.90;;;;;;5101981;28;20028;-74
2021/12/29 09:15:38;;;;;;;40.05;13.52;;;9.00;99.90;;;;;;5104134;28;20096;-74
2021/12/29 09:18:03;;;;;;;35.42;14.23;;;9.00;99.90;;;;;;5112541;28;20023;-75
2021/12/29 09:20:32;;;;;;;38.38;14.75;;;9.00;99.90;;;;;;5107137;28;20111;-74
2021/12/29 09:23:05;;;;;;;33.47;14.07;;;9.00;99.90;;;;;;5098838;28;20099;-74
2021/12/29 09:25:31;;;;;;;30.90;13.65;;;9.00;99.90;;;;;;5096019;28;20028;-75
2021/12/29 09:27:57;;;;;;;34.83;13.27;;;9.00;99.90;;;;;;5098491;28;20628;-75
2021/12/29 09:30:26;;;;;;;29.45;13.60;;;9.00;99.90;;;;;;5102518;28;20049;-75
2021/12/29 09:32:52;;;;;;;37.65;15.50;;;9.00;99.90;;;;;;5103214;28;20427;-75
2021/12/29 09:35:20;;;;;;;35.22;13.38;;;9.10;99.90;;;;;;5101449;28;20123;-75
2021/12/29 09:37:46;;;;;;;41.72;13.80;;;9.00;99.90;;;;;;5101641;28;20068;-75
2021/12/29 09:40:12;;;;;;;29.88;12.57;;;9.00;99.90;;;;;;5102958;28;20441;-75
2021/12/29 09:42:38;;;;;;;32.88;14.82;;;9.10;99.90;;;;;;5101416;28;20358;-76
2021/12/29 09:45:06;;;;;;;35.47;14.57;;;9.10;99.90;;;;;;5112562;28;20027;-76
2021/12/29 09:47:33;;;;;;;38.22;14.32;;;9.00;99.90;;;;;;5102713;28;20024;-75
2021/12/29 09:50:00;;;;;;;35.88;14.25;;;9.00;99.90;;;;;;5102550;28;20542;-75
2021/12/29 09:52:29;;;;;;;34.08;13.35;;;9.10;99.90;;;;;;5101234;28;20016;-75
2021/12/29 09:54:56;;;;;;;32.25;14.52;;;9.00;99.90;;;;;;5100969;28;20019;-75
2021/12/29 09:57:22;;;;;;;36.30;15.70;;;9.00;99.90;;;;;;5102904;28;20047;-74
2021/12/29 09:59:47;;;;;;;35.03;15.70;;;9.10;99.90;;;;;;5099933;28;20479;-75
2021/12/29 10:02:13;;;;;;;33.63;14.00;;;9.10;99.90;;;;;;5073781;28;20023;-72
2021/12/29 10:04:39;;;;;;;29.50;14.43;;;9.10;99.90;;;;;;5095391;28;20023;-74
2021/12/29 10:07:16;;;;;;;29.55;14.35;;;9.10;99.90;;;;;;5112439;28;20326;-73
2021/12/29 10:09:42;;;;;;;31.27;14.07;;;9.10;99.90;;;;;;5111220;28;20047;-72
2021/12/29 10:12:10;;;;;;;24.70;13.73;;;9.10;99.90;;;;;;5111142;28;20060;-71
2021/12/29 10:14:36;;;;;;;24.48;12.23;;;9.10;99.90;;;;;;5111676;28;20504;-72
2021/12/29 10:17:09;;;;;;;32.42;12.73;;;9.10;99.90;;;;;;5111053;28;20157;-71
2021/12/29 10:19:37;;;;;;;32.42;13.50;;;9.20;99.90;;;;;;5093464;28;20108;-71
2021/12/29 10:22:03;;;;;;;31.73;13.40;;;9.30;99.90;;;;;;5071744;28;20459;-71
2021/12/29 10:24:28;;;;;;;25.08;11.82;;;9.30;99.90;;;;;;5071430;28;20056;-72
2021/12/29 10:26:57;;;;;;;24.00;11.23;;;9.40;99.90;;;;;;5087718;28;20040;-71
2021/12/29 10:29:22;;;;;;;22.40;10.82;;;9.50;99.90;;;;;;5057288;28;20035;-71
2021/12/29 10:31:57;;;;;;;31.67;12.38;;;9.40;99.90;;;;;;5075593;28;20024;-71
2021/12/29 10:34:29;;;;;;;28.38;12.43;;;9.60;99.90;;;;;;5075427;28;20032;-72
2021/12/29 10:37:01;;;;;;;38.33;13.40;;;9.60;99.90;;;;;;5075530;28;20111;-71
2021/12/29 10:39:32;;;;;;;35.42;17.77;;;9.60;99.90;;;;;;5075194;28;20279;-72
2021/12/29 10:42:10;;;;;;;31.83;16.48;;;9.70;99.90;;;;;;5075336;28;20548;-71
2021/12/29 10:44:40;;;;;;;32.40;15.40;;;9.70;99.90;;;;;;5057228;28;20024;-71
2021/12/29 10:47:19;;;;;;;30.20;13.98;;;9.70;99.90;;;;;;5057531;28;20393;-71
2021/12/29 10:50:17;;;;;;;31.55;14.52;;;9.70;99.90;;;;;;5074964;28;20043;-72
2021/12/29 10:52:46;;;;;;;35.88;16.17;;;9.70;99.90;;;;;;5012909;28;20109;-71
2021/12/29 10:55:18;;;;;;;24.55;12.82;;;9.70;99.90;;;;;;4995803;28;20053;-76
2021/12/29 10:57:45;;;;;;;23.55;14.90;;;9.60;99.90;;;;;;5012293;28;20045;-73
2021/12/29 11:00:19;;;;;;;23.55;15.57;;;9.80;99.90;;;;;;4995798;28;20033;-73
2021/12/29 11:02:48;;;;;;;30.88;17.38;;;9.90;99.90;;;;;;5012261;28;20128;-74
2021/12/29 11:05:14;;;;;;;28.15;17.13;;;9.90;99.90;;;;;;5009779;28;20029;-74
2021/12/29 11:07:40;;;;;;;30.38;19.88;;;9.90;99.90;;;;;;5012210;28;20026;-74
2021/12/29 11:10:20;;;;;;;32.88;22.02;;;10.10;99.90;;;;;;4995414;28;20471;-74
2021/12/29 11:12:54;;;;;;;37.13;24.40;;;10.10;99.90;;;;;;5011557;28;20038;-74
2021/12/29 11:15:25;;;;;;;34.55;20.48;;;;;;;;;;5010481;28;20401;-74
2021/12/29 11:17:52;;;;;;;30.95;18.73;;;;;;;;;;5012166;28;20033;-74
2021/12/29 11:20:19;;;;;;;25.45;17.77;;;;;;;;;;5006602;28;20035;-73
2021/12/29 11:22:45;;;;;;;34.85;18.80;;;;;;;;;;4993091;28;20038;-73
2021/12/29 11:25:11;;;;;;;32.55;18.15;;;;;;;;;;5002236;28;20022;-74
2021/12/29 11:27:38;;;;;;;25.10;17.02;;;;;;;;;;5045319;28;20070;-73
2021/12/29 11:30:10;;;;;;;31.17;15.43;;;;;;;;;;5094953;28;20505;-87
2021/12/29 11:32:38;;;;;;;24.48;12.63;;;;;;;;;;5077833;28;20354;-77
2021/12/29 11:35:08;;;;;;;22.88;13.20;;;;;;;;;;5077174;28;20055;-85
2021/12/29 11:37:35;;;;;;;23.20;13.05;;;;;;;;;;5093699;28;20024;-78
2021/12/29 11:40:01;;;;;;;24.45;12.40;;;;;;;;;;5070470;28;20059;-77
2021/12/29 11:42:27;;;;;;;21.25;12.70;;;;;;;;;;5069946;28;20115;-78
2021/12/29 11:44:53;;;;;;;19.90;12.20;;;;;;;;;;5066846;28;20032;-77
2021/12/29 11:47:19;;;;;;;27.75;14.38;;;;;;;;;;5058047;28;20691;-77
2021/12/29 11:49:45;;;;;;;18.45;12.13;;;;;;;;;;5086857;28;20466;-77
2021/12/29 11:52:17;;;;;;;24.20;13.60;;;;;;;;;;5074231;28;20077;-78
2021/12/29 11:55:03;;;;;;;20.40;14.35;;;;;;;;;;5079708;28;20024;-77
2021/12/29 11:57:31;;;;;;;30.10;13.27;;;;;;;;;;5085398;28;20025;-78
2021/12/29 12:00:29;;;;;;;24.52;13.43;;;;;;;;;;5056455;28;20366;-78
2021/12/29 12:03:07;;;;;;;23.05;13.95;;;;;;;;;;5008724;28;20034;-77
2021/12/29 12:05:34;;;;;;;18.48;12.80;;;;;;;;;;4998236;28;20068;-77
2021/12/29 12:08:11;;;;;;;17.98;12.85;;;;;;;;;;5016698;28;20030;-77
2021/12/29 12:10:38;;;;;;;29.10;14.77;;;;;;;;;;5005304;28;20549;-77
2021/12/29 12:13:08;;;;;;;22.83;13.05;;;;;;;;;;5012012;28;20057;-76
2021/12/29 12:15:36;;;;;;;21.83;12.68;;;;;;;;;;5022895;28;20096;-77
2021/12/29 12:18:07;;;;;;;21.27;12.30;;;;;;;;;;5019780;28;20025;-77
2021/12/29 12:20:39;;;;;;;19.40;12.15;;;;;;;;;;5022629;28;20110;-77
2021/12/29 12:23:06;;;;;;;21.23;11.52;;;;;;;;;;5024483;28;20123;-77
2021/12/29 12:25:33;;;;;;;21.65;12.40;;;;;;;;;;5019829;28;20041;-77
2021/12/29 12:28:03;;;;;;;20.60;12.23;;;;;;;;;;5028536;28;20087;-77
2021/12/29 12:30:37;;;;;;;24.00;11.70;;;;;;;;;;5042103;28;20491;-77
2021/12/29 12:33:10;;;;;;;23.65;11.93;;;;;;;;;;5041404;28;20445;-77
2021/12/29 12:35:40;;;;;;;22.08;11.40;;;;;;;;;;5043009;28;20041;-77
2021/12/29 12:38:17;;;;;;;18.83;11.43;;;;;;;;;;5047906;28;20028;-77
2021/12/29 12:40:43;;;;;;;22.58;11.07;;;;;;;;;;5078568;28;20035;-78
2021/12/29 12:43:12;;;;;;;24.35;11.63;;;;;;;;;;5105749;28;20525;-77
2021/12/29 12:45:46;;;;;;;19.60;11.52;;;;;;;;;;5088442;28;20104;-78
2021/12/29 12:48:14;;;;;;;19.15;10.38;;;;;;;;;;5104935;28;20016;-78
2021/12/29 12:50:41;;;;;;;22.27;11.40;;;;;;;;;;5098062;28;20499;-77
2021/12/29 12:53:08;;;;;;;21.10;11.80;;;;;;;;;;5101886;28;20024;-76
2021/12/29 12:55:45;;;;;;;26.13;13.18;;;;;;;;;;5101815;28;20107;-81
2021/12/29 12:58:14;;;;;;;22.70;12.43;;;;;;;;;;5075036;28;20028;-75
2021/12/29 13:00:48;;;;;;;26.70;12.48;;;;;;;;;;5090559;28;20501;-78